createdAt,value
2023-03-24T00:01:54.295Z,10.73
2023-03-24T00:04:21.871Z,9.50
2023-03-24T00:06:49.572Z,16.08
2023-03-24T00:09:17.195Z,11.40
2023-03-24T00:11:44.431Z,9.82
2023-03-24T00:14:14.395Z,11.35
2023-03-24T00:16:45.646Z,9.68
2023-03-24T00:19:15.170Z,11.70
2023-03-24T00:21:43.024Z,10.68
2023-03-24T00:24:11.777Z,10.30
2023-03-24T00:26:41.093Z,10.25
2023-03-24T00:29:11.190Z,12.05
2023-03-24T00:31:41.491Z,11.82
2023-03-24T00:34:10.412Z,10.93
2023-03-24T00:36:37.684Z,9.98
2023-03-24T00:39:06.548Z,11.10
2023-03-24T00:41:33.730Z,12.15
2023-03-24T00:44:03.615Z,10.00
2023-03-24T00:46:30.863Z,9.88
2023-03-24T00:49:03.855Z,11.00
2023-03-24T00:51:33.410Z,12.13
2023-03-24T00:54:02.174Z,10.30
2023-03-24T00:56:31.666Z,10.30
2023-03-24T00:58:58.668Z,9.90
2023-03-24T01:01:27.612Z,10.27
2023-03-24T01:03:54.678Z,16.52
2023-03-24T01:06:22.536Z,9.88
2023-03-24T01:08:53.949Z,11.52
2023-03-24T01:11:26.230Z,12.13
2023-03-24T01:13:54.738Z,11.73
2023-03-24T01:16:25.872Z,11.10
2023-03-24T01:18:53.360Z,11.38
2023-03-24T01:21:20.525Z,14.13
2023-03-24T01:23:47.828Z,9.68
2023-03-24T01:26:14.896Z,11.85
2023-03-24T01:28:43.903Z,10.77
2023-03-24T01:31:11.856Z,10.52
2023-03-24T01:33:39.166Z,11.35
2023-03-24T01:36:07.011Z,10.73
2023-03-24T01:38:34.385Z,10.40
2023-03-24T01:41:01.874Z,10.40
2023-03-24T01:43:33.970Z,10.73
2023-03-24T01:46:06.263Z,12.02
2023-03-24T01:48:41.032Z,12.20
2023-03-24T01:51:09.604Z,10.75
2023-03-24T01:53:38.771Z,11.52
2023-03-24T01:56:07.129Z,10.98
2023-03-24T01:58:34.695Z,12.32
2023-03-24T02:01:01.671Z,11.05
2023-03-24T02:03:34.157Z,10.60
2023-03-24T02:06:02.578Z,10.55
2023-03-24T02:08:55.453Z,11.27
2023-03-24T02:11:24.143Z,10.30
2023-03-24T02:13:51.420Z,12.70
2023-03-24T02:16:37.469Z,9.57
2023-03-24T02:19:19.350Z,12.10
2023-03-24T02:22:07.570Z,9.90
2023-03-24T02:24:55.800Z,10.32
2023-03-24T02:27:33.023Z,10.77
2023-03-24T02:30:13.645Z,11.25
2023-03-24T02:33:04.473Z,9.52
2023-03-24T02:35:49.827Z,10.70
2023-03-24T02:38:46.835Z,11.18
2023-03-24T02:41:25.013Z,9.30
2023-03-24T02:44:11.935Z,11.73
2023-03-24T02:47:07.840Z,10.43
2023-03-24T02:49:48.688Z,11.43
2023-03-24T02:52:37.703Z,10.20
2023-03-24T02:55:10.574Z,11.38
2023-03-24T02:57:48.750Z,8.95
2023-03-24T03:00:30.980Z,12.13
2023-03-24T03:03:03.679Z,9.32
2023-03-24T03:05:45.197Z,15.55
2023-03-24T03:08:15.151Z,10.77
2023-03-24T03:10:44.864Z,10.73
2023-03-24T03:13:17.702Z,9.60
2023-03-24T03:15:48.220Z,10.23
2023-03-24T03:18:21.321Z,11.10
2023-03-24T03:20:53.357Z,9.98
2023-03-24T03:23:36.573Z,10.27
2023-03-24T03:26:06.387Z,9.50
2023-03-24T03:28:38.357Z,11.90
2023-03-24T03:31:15.002Z,12.05
2023-03-24T03:33:51.378Z,13.00
2023-03-24T03:36:31.405Z,12.63
2023-03-24T03:39:07.233Z,11.23
2023-03-24T03:41:34.307Z,13.13
2023-03-24T03:44:01.388Z,9.68
2023-03-24T03:46:28.845Z,12.60
2023-03-24T03:48:55.883Z,10.30
2023-03-24T03:51:22.855Z,14.65
2023-03-24T03:54:01.399Z,11.68
2023-03-24T03:56:30.403Z,9.93
2023-03-24T03:58:58.391Z,10.80
2023-03-24T04:01:28.428Z,11.20
2023-03-24T04:04:20.385Z,12.00
2023-03-24T04:06:59.319Z,13.02
2023-03-24T04:09:26.132Z,16.08
2023-03-24T04:14:54.380Z,23.27
2023-03-24T04:17:49.993Z,30.05
2023-03-24T04:20:38.705Z,25.37
2023-03-24T04:23:14.661Z,31.90
2023-03-24T04:25:58.707Z,17.70
2023-03-24T04:28:37.635Z,12.20
2023-03-24T04:31:30.440Z,18.52
2023-03-24T04:34:12.340Z,18.10
2023-03-24T04:36:50.465Z,14.20
2023-03-24T04:39:25.757Z,20.00
2023-03-24T04:41:53.224Z,15.32
2023-03-24T04:44:22.014Z,16.45
2023-03-24T04:46:55.911Z,15.27
2023-03-24T04:49:25.571Z,14.82
2023-03-24T04:51:52.815Z,14.55
2023-03-24T04:54:20.902Z,15.10
2023-03-24T04:56:52.580Z,13.20
2023-03-24T04:59:20.145Z,11.10
2023-03-24T05:01:50.983Z,11.82
2023-03-24T05:04:19.404Z,12.68
2023-03-24T05:06:46.976Z,11.75
2023-03-24T05:09:15.198Z,12.20
2023-03-24T05:11:42.083Z,14.93
2023-03-24T05:14:08.953Z,17.62
2023-03-24T05:16:36.182Z,14.07
2023-03-24T05:19:03.562Z,18.02
2023-03-24T05:21:32.347Z,15.70
2023-03-24T05:24:00.826Z,16.90
2023-03-24T05:26:27.824Z,15.35
2023-03-24T05:28:54.864Z,15.63
2023-03-24T05:31:21.763Z,17.05
2023-03-24T05:33:48.910Z,22.70
2023-03-24T05:36:16.549Z,23.73
2023-03-24T05:38:43.587Z,14.75
2023-03-24T05:41:10.706Z,16.40
2023-03-24T05:43:37.596Z,17.60
2023-03-24T05:46:04.576Z,16.30
2023-03-24T05:48:31.410Z,14.40
2023-03-24T05:50:58.269Z,14.85
2023-03-24T05:53:25.524Z,16.45
2023-03-24T05:55:53.815Z,16.30
2023-03-24T05:58:21.655Z,14.18
2023-03-24T06:00:48.926Z,12.98
2023-03-24T06:03:17.595Z,11.15
2023-03-24T06:05:46.336Z,12.52
2023-03-24T06:08:13.501Z,11.38
2023-03-24T06:10:41.267Z,11.35
2023-03-24T06:13:09.455Z,10.30
2023-03-24T06:15:39.705Z,11.52
2023-03-24T06:18:08.016Z,11.23
2023-03-24T06:20:36.288Z,12.55
2023-03-24T06:23:03.582Z,11.23
2023-03-24T06:25:30.467Z,10.27
2023-03-24T06:28:04.236Z,9.80
2023-03-24T06:30:31.514Z,10.50
2023-03-24T06:32:58.511Z,13.57
2023-03-24T06:35:25.921Z,10.95
2023-03-24T06:37:53.071Z,9.60
2023-03-24T06:40:20.093Z,10.43
2023-03-24T06:42:47.017Z,10.18
2023-03-24T06:45:13.919Z,11.63
2023-03-24T06:47:40.854Z,9.77
2023-03-24T06:50:08.151Z,8.95
2023-03-24T06:52:35.788Z,11.05
2023-03-24T06:55:02.998Z,9.52
2023-03-24T06:57:29.943Z,12.60
2023-03-24T06:59:56.863Z,11.50
2023-03-24T07:12:47.867Z,9.40
2023-03-24T07:15:15.026Z,9.10
2023-03-24T07:17:43.072Z,11.77
2023-03-24T07:20:10.327Z,9.85
2023-03-24T07:22:37.290Z,10.13
2023-03-24T07:25:05.664Z,10.13
2023-03-24T07:27:33.036Z,11.45
2023-03-24T07:30:01.084Z,10.55
2023-03-24T07:32:30.737Z,13.45
2023-03-24T07:34:57.636Z,11.32
2023-03-24T07:37:24.515Z,11.60
2023-03-24T07:39:57.504Z,11.40
2023-03-24T07:42:25.272Z,13.48
2023-03-24T07:44:52.454Z,10.82
2023-03-24T07:47:19.437Z,12.40
2023-03-24T07:49:46.509Z,10.82
2023-03-24T07:52:16.068Z,11.27
2023-03-24T07:54:42.937Z,10.48
2023-03-24T07:57:12.345Z,11.85
2023-03-24T07:59:39.393Z,12.07
2023-03-24T08:02:12.497Z,12.00
2023-03-24T08:04:39.535Z,13.30
2023-03-24T08:07:06.487Z,11.65
2023-03-24T08:09:37.693Z,12.82
2023-03-24T08:12:17.368Z,11.82
2023-03-24T08:14:47.118Z,10.65
2023-03-24T08:17:14.081Z,11.05
2023-03-24T08:19:56.206Z,11.68
2023-03-24T08:22:27.053Z,11.20
2023-03-24T08:24:53.931Z,12.35
2023-03-24T08:27:20.813Z,13.93
2023-03-24T08:29:47.702Z,11.90
2023-03-24T08:32:14.568Z,13.30
2023-03-24T08:34:41.478Z,13.50
2023-03-24T08:37:08.837Z,11.98
2023-03-24T08:43:17.418Z,11.15
2023-03-24T08:45:44.533Z,13.38
2023-03-24T08:52:01.075Z,13.95
2023-03-24T08:54:27.947Z,15.32
2023-03-24T08:56:54.851Z,13.45
2023-03-24T09:02:52.630Z,14.02
2023-03-24T09:05:29.382Z,11.43
2023-03-24T09:11:51.028Z,16.02
2023-03-24T09:14:17.880Z,13.77
2023-03-24T09:16:45.382Z,15.85
2023-03-24T09:22:43.932Z,14.25
2023-03-24T09:25:13.219Z,13.23
2023-03-24T09:31:58.086Z,14.50
2023-03-24T09:34:25.619Z,14.68
2023-03-24T09:36:52.525Z,15.55
2023-03-24T09:43:04.743Z,17.42
2023-03-24T09:45:36.305Z,15.55
2023-03-24T09:52:05.037Z,15.85
2023-03-24T09:54:48.184Z,24.17
2023-03-24T09:57:22.617Z,15.55
2023-03-24T09:59:51.840Z,13.80
2023-03-24T10:02:21.393Z,15.63
2023-03-24T10:04:49.255Z,16.48
2023-03-24T10:07:35.317Z,15.15
2023-03-24T10:10:03.187Z,14.35
2023-03-24T10:12:37.009Z,14.82
2023-03-24T10:15:17.679Z,14.57
2023-03-24T10:22:06.619Z,12.43
2023-03-24T10:24:39.165Z,15.00
2023-03-24T10:27:29.186Z,13.50
2023-03-24T10:30:02.595Z,18.73
2023-03-24T10:32:32.444Z,12.18
2023-03-24T10:35:07.773Z,13.75
2023-03-24T10:41:53.788Z,15.25
2023-03-24T10:44:22.007Z,12.27
2023-03-24T10:46:52.865Z,11.63
2023-03-24T10:53:00.806Z,13.45
2023-03-24T10:55:31.963Z,10.98
2023-03-24T11:04:11.839Z,8.65
2023-03-24T11:06:38.788Z,9.32
2023-03-24T11:12:57.863Z,8.25
2023-03-24T11:15:30.527Z,9.25
2023-03-24T11:22:04.510Z,9.68
2023-03-24T11:24:36.456Z,8.75
2023-03-24T11:27:04.192Z,8.68
2023-03-24T11:32:45.509Z,8.55
2023-03-24T11:35:17.974Z,14.07
2023-03-24T11:41:53.869Z,8.73
2023-03-24T11:44:25.364Z,9.45
2023-03-24T11:47:01.344Z,9.45
2023-03-24T11:53:25.043Z,9.60
2023-03-24T11:55:56.055Z,10.38
2023-03-24T12:04:46.647Z,12.50
2023-03-24T12:07:28.808Z,9.25
2023-03-24T12:10:36.454Z,10.27
2023-03-24T12:13:22.058Z,12.02
2023-03-24T12:16:31.203Z,7.65
2023-03-24T12:23:00.659Z,10.88
2023-03-24T12:25:42.576Z,9.50
2023-03-24T12:34:49.069Z,11.57
2023-03-24T12:37:23.115Z,10.80
2023-03-24T12:40:32.484Z,9.80
2023-03-24T12:43:12.328Z,9.45
2023-03-24T12:45:44.963Z,7.32
2023-03-24T12:52:04.968Z,7.85
2023-03-24T12:54:50.511Z,9.63
2023-03-24T12:57:19.098Z,7.28
2023-03-24T12:59:50.523Z,10.95
2023-03-24T13:02:39.906Z,11.20
2023-03-24T13:05:15.608Z,8.05
2023-03-24T13:11:55.145Z,6.30
2023-03-24T13:15:03.322Z,7.03
2023-03-24T13:21:51.817Z,11.55
2023-03-24T13:24:19.594Z,7.65
2023-03-24T13:27:04.571Z,7.12
2023-03-24T13:32:45.617Z,9.00
2023-03-24T13:35:34.260Z,9.00
2023-03-24T13:41:58.158Z,8.88
2023-03-24T13:44:28.838Z,10.07
2023-03-24T13:47:15.020Z,7.28
2023-03-24T13:54:16.361Z,7.07
2023-03-24T13:57:03.791Z,8.85
2023-03-24T14:02:44.182Z,9.13
2023-03-24T14:05:24.129Z,5.10
2023-03-24T14:11:56.592Z,6.80
2023-03-24T14:14:25.505Z,4.43
2023-03-24T14:17:17.321Z,5.95
2023-03-24T14:23:46.030Z,8.50
2023-03-24T14:26:21.927Z,6.30
2023-03-24T14:32:17.004Z,5.22
2023-03-24T14:34:59.114Z,5.68
2023-03-24T14:37:27.769Z,6.20
2023-03-24T14:39:59.460Z,7.10
2023-03-24T14:42:29.031Z,5.47
2023-03-24T14:44:58.109Z,7.45
2023-03-24T14:51:52.724Z,4.35
2023-03-24T15:01:07.668Z,6.32
2023-03-24T15:03:42.594Z,6.30
2023-03-24T15:06:17.578Z,5.93
2023-03-24T15:12:25.444Z,10.50
2023-03-24T15:14:52.332Z,4.50
2023-03-24T15:17:23.082Z,5.70
2023-03-24T15:19:54.545Z,6.72
2023-03-24T15:22:21.694Z,5.97
2023-03-24T15:24:51.320Z,6.30
2023-03-24T15:27:22.303Z,4.32
2023-03-24T15:29:54.868Z,4.55
2023-03-24T15:32:23.626Z,8.43
2023-03-24T15:34:53.068Z,6.43
2023-03-24T15:37:31.315Z,6.10
2023-03-24T15:40:08.989Z,6.80
2023-03-24T15:42:44.451Z,5.65
2023-03-24T15:45:32.610Z,8.10
2023-03-24T15:52:03.597Z,6.07
2023-03-24T15:54:37.099Z,5.12
2023-03-24T15:57:17.220Z,5.82
2023-03-24T16:03:15.530Z,5.68
2023-03-24T16:05:48.522Z,7.47
2023-03-24T16:11:59.005Z,6.62
2023-03-24T16:14:30.178Z,4.68
2023-03-24T16:17:02.288Z,7.50
2023-03-24T16:23:13.451Z,8.57
2023-03-24T16:25:40.490Z,8.13
2023-03-24T16:34:28.405Z,7.65
2023-03-24T16:36:56.726Z,10.80
2023-03-24T16:39:28.494Z,7.65
2023-03-24T16:41:56.553Z,9.15
2023-03-24T16:44:24.140Z,6.87
2023-03-24T16:46:53.989Z,6.85
2023-03-24T16:53:01.888Z,7.68
2023-03-24T16:55:28.759Z,5.78
2023-03-24T16:57:55.663Z,16.20
2023-03-24T17:00:23.149Z,6.87
2023-03-24T17:02:50.692Z,7.50
2023-03-24T17:05:27.763Z,6.43
2023-03-24T17:10:22.957Z,8.07
2023-03-24T17:12:50.458Z,7.50
2023-03-24T17:15:21.580Z,8.15
2023-03-24T17:21:56.927Z,8.07
2023-03-24T17:24:24.351Z,8.70
2023-03-24T17:26:51.525Z,6.25
2023-03-24T17:35:27.518Z,7.07
2023-03-24T17:42:01.580Z,7.82
2023-03-24T17:50:14.666Z,7.87
2023-03-24T17:52:48.091Z,8.75
2023-03-24T17:55:16.569Z,7.68
2023-03-24T18:02:03.132Z,7.28
2023-03-24T18:04:30.156Z,7.72
2023-03-24T18:06:57.028Z,7.40
2023-03-24T18:13:05.455Z,7.75
2023-03-24T18:15:33.321Z,8.82
2023-03-24T18:18:00.831Z,6.65
2023-03-24T18:20:27.877Z,7.05
2023-03-24T18:22:54.831Z,9.48
2023-03-24T18:25:22.173Z,8.32
2023-03-24T18:27:49.756Z,11.70
2023-03-24T18:30:17.057Z,8.25
2023-03-24T18:32:44.083Z,8.05
2023-03-24T18:35:16.454Z,10.20
2023-03-24T18:37:44.177Z,7.57
2023-03-24T18:40:11.887Z,9.75
2023-03-24T18:42:38.796Z,7.95
2023-03-24T18:45:07.134Z,9.05
2023-03-24T18:53:43.542Z,8.00
2023-03-24T18:56:12.157Z,8.68
2023-03-24T18:58:39.192Z,6.90
2023-03-24T19:01:09.510Z,8.63
2023-03-24T19:03:38.493Z,9.88
2023-03-24T19:06:07.410Z,11.20
2023-03-24T19:12:17.158Z,9.73
2023-03-24T19:14:44.115Z,10.40
2023-03-24T19:17:11.203Z,9.00
2023-03-24T19:19:38.300Z,9.57
2023-03-24T19:22:05.990Z,11.65
2023-03-24T19:24:32.855Z,11.38
2023-03-24T19:26:59.703Z,10.70
2023-03-24T19:33:20.733Z,13.20
2023-03-24T19:35:48.976Z,11.95
2023-03-24T19:38:17.372Z,14.18
2023-03-24T19:40:45.065Z,13.38
2023-03-24T19:43:11.984Z,13.45
2023-03-24T19:45:43.086Z,11.05
2023-03-24T19:48:10.767Z,11.95
2023-03-24T19:50:37.971Z,12.98
2023-03-24T19:53:05.178Z,13.62
2023-03-24T19:55:32.196Z,14.18
2023-03-24T20:01:52.360Z,12.55
2023-03-24T20:04:19.550Z,14.93
2023-03-24T20:06:46.642Z,12.77
2023-03-24T20:09:13.697Z,14.87
2023-03-24T20:11:40.923Z,15.95
2023-03-24T20:14:07.835Z,13.85
2023-03-24T20:16:34.907Z,12.45
2023-03-24T20:22:29.562Z,18.05
2023-03-24T20:24:56.483Z,15.27
2023-03-24T20:27:23.361Z,14.93
2023-03-24T20:29:50.206Z,17.17
2023-03-24T20:32:17.102Z,16.90
2023-03-24T20:34:43.983Z,20.33
2023-03-24T20:37:10.955Z,19.73
2023-03-24T20:43:18.796Z,22.85
2023-03-24T20:45:45.786Z,19.67
2023-03-24T20:48:12.659Z,19.73
2023-03-24T20:50:39.564Z,19.85
2023-03-24T20:53:07.530Z,21.75
2023-03-24T20:55:34.401Z,21.05
2023-03-24T20:58:01.490Z,20.02
2023-03-24T21:00:29.791Z,21.62
2023-03-24T21:02:56.797Z,18.90
2023-03-24T21:05:23.853Z,18.10
2023-03-24T21:18:32.470Z,17.83
2023-03-24T21:21:03.864Z,16.33
2023-03-24T21:23:34.931Z,19.17
2023-03-24T21:26:02.634Z,18.55
2023-03-24T21:32:25.450Z,18.95
2023-03-24T21:34:52.432Z,17.30
2023-03-24T21:37:19.896Z,17.20
2023-03-24T21:39:47.134Z,17.83
2023-03-24T21:42:15.503Z,21.48
2023-03-24T21:44:42.913Z,17.70
2023-03-24T21:47:09.838Z,17.35
2023-03-24T21:55:51.889Z,21.98
2023-03-24T22:02:00.151Z,19.77
2023-03-24T22:04:27.890Z,18.02
2023-03-24T22:06:56.417Z,20.60
2023-03-24T22:09:27.687Z,20.15
2023-03-24T22:11:57.345Z,17.12
2023-03-24T22:14:24.236Z,17.35
2023-03-24T22:16:51.866Z,14.52
2023-03-24T22:19:20.359Z,15.70
2023-03-24T22:21:50.519Z,14.60
2023-03-24T22:24:18.204Z,14.98
2023-03-24T22:26:45.077Z,14.98
2023-03-24T22:32:52.769Z,17.25
2023-03-24T22:35:21.457Z,13.85
2023-03-24T22:37:48.457Z,13.98
2023-03-24T22:40:15.327Z,14.95
2023-03-24T22:42:42.189Z,13.80
2023-03-24T22:45:09.366Z,13.75
2023-03-24T22:47:36.530Z,13.27
2023-03-24T22:50:04.281Z,13.25
2023-03-24T22:52:31.239Z,12.52
2023-03-24T22:54:58.078Z,13.70
2023-03-24T22:57:24.958Z,13.93
2023-03-24T22:59:51.792Z,12.15
2023-03-24T23:02:24.511Z,12.65
2023-03-24T23:04:51.704Z,13.65
2023-03-24T23:07:22.512Z,11.40
2023-03-24T23:09:49.435Z,11.50
2023-03-24T23:12:16.573Z,10.25
2023-03-24T23:14:46.685Z,10.55
2023-03-24T23:17:15.932Z,10.13
2023-03-24T23:23:23.839Z,10.23
2023-03-24T23:25:51.725Z,10.80
2023-03-24T23:31:59.666Z,5.15
2023-03-24T23:34:26.632Z,6.75
2023-03-24T23:36:53.691Z,4.72
2023-03-24T23:39:20.533Z,7.50
2023-03-24T23:41:47.391Z,6.32
2023-03-24T23:44:15.058Z,7.85
2023-03-24T23:46:41.984Z,7.90
2023-03-24T23:52:49.640Z,6.15
2023-03-24T23:55:18.063Z,8.52
2023-03-24T23:57:45.592Z,4.55
